Nearby METAR Reports

 

KSJC - San Jose, California, USA
Distance from station: NO 14km
Uppdaterad: 2020-01-24 08:53
Few Clouds
Few Clouds
 Vind från SO
Vind: SO 6 km/h
Temperatur: 9°C
Daggpunkt: 8°C
Luftfuktighet: 94%
Barometer: 1020.7 hPa
Clouds: Few Clouds
Visibility: 14 km
Cloud details: Few Clouds 61 m
2020/01/24 07:53 KSJC 240753Z 14003KT 9SM FEW002 09/08 A3014 RMK AO2 SLP206 LAST T00940078 401720072 $
KNUQ - Moffett Nas/Mtn, California, USA
Distance from station: N 14km
Uppdaterad: 2019-11-21 17:56
NOT Current

 
Barometer: 1011.2 hPa
2019/11/21 16:56 KNUQ 211656Z AUTO A2986 RMK AO2 SLP116 PWINO $
 
KPAO - Palo Alto, California, USA
Distance from station: NNV 23km
Uppdaterad: 2020-01-24 05:47
NOT Current
Övervägande molnigt
Övervägande molnigt
 Vind från VNV
Vind: VNV 6 km/h
Temperatur: 11°C
Daggpunkt: 9°C
Luftfuktighet: 88%
Barometer: 1021 hPa
Clouds: Övervägande molnigt
Visibility: 16 km
Cloud details: Övervägande molnigt 3658 m
2020/01/24 04:47 KPAO 240447Z 29003KT 10SM BKN120 11/09 A3015 RMK GPS N/A AT NIGHT
KRHV - San Jose/Reid, California, USA
Distance from station: ONO 19km
Uppdaterad: 2020-01-24 06:47
NOT Current
Övervägande molnigt
Övervägande molnigt
 Vind från calm
Vind: Vindstilla
Temperatur: 12°C
Daggpunkt: 9°C
Luftfuktighet: 82%
Barometer: 1021 hPa
Clouds: Övervägande molnigt
Visibility: 16 km
Cloud details: Delvis molnigt 1829 m
Övervägande molnigt 4572 m
2020/01/24 05:47 KRHV 240547Z 00000KT 10SM SCT060 BKN150 12/09 A3015 RMK LAST
 
KOAK - Oakland, California, USA
Distance from station: NNV 50km
Uppdaterad: 2020-01-24 08:53
Shallow fog, Delvis molnigt
Shallow fog, Delvis molnigt
 Vind från calm
Vind: Vindstilla
Temperatur: 11°C
Daggpunkt: 9°C
Luftfuktighet: 88%
Barometer: 1021 hPa
Summering: Shallow Fog
Clouds: Delvis molnigt
Visibility: 14 km
Cloud details: Few Clouds 3658 m
Delvis molnigt 6096 m
2020/01/24 07:53 KOAK 240753Z 00000KT 9SM MIFG FEW120 SCT200 11/09 A3015 RMK AO2 SLP210 T01110094 401610083
KSQL - San Carlos Airpo, California, USA
Distance from station: NV 34km
Uppdaterad: 2020-01-24 09:35
Klart
Klart
 Vind från VNV
Vind: VNV 6 km/h
Temperatur: 9°C
Daggpunkt: 9°C
Luftfuktighet: 100%
Barometer: 1021.3 hPa
Clouds: Klart
Visibility: 14 km
2020/01/24 08:35 KSQL 240835Z AUTO 29003KT 9SM CLR 09/09 A3016 RMK AO2
 
KSFO - San Francisco, California, USA
Distance from station: NV 49km
Uppdaterad: 2020-01-24 08:56
Klart
Klart
 Vind från calm
Vind: Vindstilla
Temperatur: 11°C
Daggpunkt: 9°C
Luftfuktighet: 88%
Barometer: 1020.7 hPa
Clouds: Klart
Visibility: 16 km
2020/01/24 07:56 KSFO 240756Z 00000KT 10SM CLR 11/09 A3014 RMK AO2 SLP207 T01060089 401440083
KE16 - San Martin, California, USA
Distance from station: OSO 43km
Uppdaterad: 2019-11-14 10:35
NOT Current
Genommulet
Genommulet
 Vind från SO
Vind: SO 11 km/h
Temperatur: 12°C
Daggpunkt: 10°C
Luftfuktighet: 88%
Barometer: 1017.6 hPa
Clouds: Genommulet
Visibility: 16 km
Cloud details: Genommulet 427 m
2019/11/14 09:35 KE16 140935Z AUTO 13006KT 10SM OVC014 12/10 A3005 RMK AO2
 
KWVI - Watsonville, California, USA
Distance from station: SSO 44km
Uppdaterad: 2020-01-24 08:53
Klart
Klart
 Vind från NNV
Vind: NNV 6 km/h
Temperatur: 10°C
Daggpunkt: 9°C
Luftfuktighet: 94%
Barometer: 1021 hPa
Clouds: Klart
Visibility: 13 km
2020/01/24 07:53 KWVI 240753Z AUTO 34003KT 8SM CLR 10/09 A3015 RMK AO2 SLP208 T01000094 402110083
KHAF - Half Moon Bay, California, USA
Distance from station: VNV 50km
Uppdaterad: 2020-01-24 09:35
Delvis molnigt
Delvis molnigt
 Vind från N
Vind: N 13 km/h
Temperatur: 11°C
Daggpunkt: 10°C
Luftfuktighet: 94%
Barometer: 1021.7 hPa
Clouds: Delvis molnigt
Visibility: 11 km
Cloud details: Delvis molnigt 91 m
2020/01/24 08:35 KHAF 240835Z AUTO 35007KT 7SM SCT003 11/10 A3017 RMK AO2
 
KHWD - Hayward, California, USA
Distance from station: N 44km
Uppdaterad: 2020-01-24 08:54
Klart
Klart
 Vind från calm
Vind: Vindstilla
Temperatur: 11°C
Daggpunkt: 9°C
Luftfuktighet: 88%
Barometer: 1020.7 hPa
Clouds: Klart
Visibility: 16 km
2020/01/24 07:54 KHWD 240754Z AUTO 00000KT 10SM CLR 11/09 A3014 RMK AO2 SLP217 T01060089 401500083
KLVK - Livermore, California, USA
Distance from station: NNO 51km
Uppdaterad: 2020-01-24 08:53
Mist, Klart
Mist, Klart
 Vind från O
Vind: O 6 km/h
Temperatur: 8°C
Daggpunkt: 7°C
Luftfuktighet: 93%
Barometer: 1020.7 hPa
Summering: Mist
Clouds: Klart
Visibility: 8 km
2020/01/24 07:53 KLVK 240753Z AUTO 10003KT 5SM BR CLR 08/07 A3014 RMK AO2 SLP204 T00780072 401390056